Time;durP1;ratioP1;P1;durP2;ratioP2;P2;SDS_P1;SDS_P2;PMS_P1;PMS_P2;Temp;Humidity;BMP_temperature;BMP_pressure;BME280_temperature;BME280_humidity;BME280_pressure;Samples;Min_cycle;Max_cycle;Signal;HPM_P1;HPM_P2
2022/05/27 00:01:50;;;;;;;2.40;1.40;;;;;;;23.81;55.18;100444.75;4913757;29;20051;-79
2022/05/27 00:04:19;;;;;;;4.55;1.50;;;;;;;23.77;53.65;100442.25;4914399;29;20052;-79
2022/05/27 00:06:48;;;;;;;4.68;1.70;;;;;;;23.76;56.71;100440.53;4914136;29;20115;-78
2022/05/27 00:09:16;;;;;;;3.47;1.50;;;;;;;23.74;56.92;100440.56;4914197;29;20080;-79
2022/05/27 00:11:46;;;;;;;3.17;1.30;;;;;;;23.76;58.50;100440.53;4914434;29;20482;-79
2022/05/27 00:14:15;;;;;;;3.35;2.25;;;;;;;23.73;58.57;100440.56;4914102;29;20107;-78
2022/05/27 00:16:43;;;;;;;9.98;3.33;;;;;;;23.70;59.28;100443.31;4914268;29;20104;-79
2022/05/27 00:19:12;;;;;;;5.68;3.25;;;;;;;23.67;59.84;100438.97;4914340;29;20056;-80
2022/05/27 00:21:40;;;;;;;5.00;2.30;;;;;;;23.63;55.02;100438.19;4906925;29;20091;-78
2022/05/27 00:24:09;;;;;;;4.97;1.80;;;;;;;23.56;52.44;100447.22;4896929;29;20055;-79
2022/05/27 00:26:38;;;;;;;6.72;2.55;;;;;;;23.51;58.48;100446.50;4902494;29;20052;-82
2022/05/27 00:29:08;;;;;;;4.07;1.85;;;;;;;23.42;55.63;100447.63;4901353;29;20044;-80
2022/05/27 00:31:36;;;;;;;5.13;2.15;;;;;;;23.33;57.77;100447.00;4897488;28;20472;-78
2022/05/27 00:34:05;;;;;;;4.18;1.70;;;;;;;23.19;59.07;100445.63;4894548;29;20131;-80
2022/05/27 00:36:33;;;;;;;2.75;1.70;;;;;;;23.05;55.94;100458.34;4894426;29;20443;-79
2022/05/27 00:39:03;;;;;;;2.45;1.23;;;;;;;22.91;56.92;100460.44;4895522;29;20140;-79
2022/05/27 00:41:32;;;;;;;6.28;1.60;;;;;;;22.80;60.25;100448.38;4895212;29;20415;-80
2022/05/27 00:44:01;;;;;;;2.28;1.50;;;;;;;22.68;60.60;100440.81;4895397;29;20071;-78
2022/05/27 00:46:34;;;;;;;1.60;1.40;;;;;;;22.61;63.87;100436.59;4895153;29;20100;-81
2022/05/27 00:49:06;;;;;;;3.20;1.50;;;;;;;22.43;65.60;100437.91;4895400;29;20045;-77
2022/05/27 00:51:39;;;;;;;4.00;2.00;;;;;;;22.22;67.05;100448.94;4895117;29;20061;-77
2022/05/27 00:54:12;;;;;;;3.85;1.38;;;;;;;22.00;63.53;100461.75;4888741;29;20456;-75
2022/05/27 00:56:45;;;;;;;3.42;1.50;;;;;;;21.92;64.51;100477.69;4876940;29;20176;-79
2022/05/27 00:59:19;;;;;;;1.58;1.45;;;;;;;21.79;63.80;100487.63;4875481;29;20112;-77
2022/05/27 01:01:50;;;;;;;3.40;1.90;;;;;;;21.66;66.23;100502.81;4875675;29;20049;-77
2022/05/27 01:04:20;;;;;;;5.40;2.30;;;;;;;21.56;67.88;100519.72;4880110;29;20053;-76
2022/05/27 01:06:48;;;;;;;10.48;2.88;;;;;;;21.44;70.39;100533.97;4880035;29;20105;-75
2022/05/27 01:09:17;;;;;;;4.90;1.67;;;;;;;20.95;72.50;100540.06;4879598;29;20053;-79
2022/05/27 01:12:01;;;;;;;3.97;2.10;;;;;;;20.64;75.46;100547.59;4880429;29;20480;-79
2022/05/27 01:14:45;;;;;;;10.02;2.72;;;;;;;20.41;76.10;100545.25;4903581;29;20086;-78
2022/05/27 01:17:24;;;;;;;5.78;2.20;;;;;;;20.26;78.75;100565.59;4919602;29;20048;-77
2022/05/27 01:20:19;;;;;;;6.90;2.55;;;;;;;20.05;80.63;100555.38;4917025;29;20638;-79
2022/05/27 01:23:11;;;;;;;5.30;2.25;;;;;;;19.95;82.44;100540.59;4900591;29;20160;-77
2022/05/27 01:26:24;;;;;;;6.50;2.40;;;;;;;19.87;86.49;100546.81;4866982;29;20052;-77
2022/05/27 01:28:55;;;;;;;3.78;2.15;;;;;;;19.81;86.82;100525.91;4906243;29;20056;-80
2022/05/27 01:31:36;;;;;;;3.70;1.95;;;;;;;19.78;86.57;100511.94;4900899;28;20385;-81
2022/05/27 01:34:12;;;;;;;3.15;1.70;;;;;;;19.74;87.33;100495.34;4898090;29;20109;-79
2022/05/27 01:36:48;;;;;;;2.00;1.38;;;;;;;19.72;88.15;100491.88;4898409;29;20057;-83
2022/05/27 01:39:27;;;;;;;3.90;1.90;;;;;;;19.70;88.55;100485.81;4898599;29;20128;-80
2022/05/27 01:42:04;;;;;;;3.55;1.98;;;;;;;19.65;89.06;100487.56;4897222;29;20056;-81
2022/05/27 01:44:38;;;;;;;5.72;2.10;;;;;;;19.57;92.87;100478.94;4898615;29;20104;-80
2022/05/27 01:47:15;;;;;;;5.43;2.22;;;;;;;19.54;94.50;100468.44;4898575;29;20064;-82
2022/05/27 01:49:47;;;;;;;5.45;2.38;;;;;;;19.54;95.90;100465.81;4899138;29;20049;-80
2022/05/27 01:52:17;;;;;;;;;;;;;;;19.54;96.97;100468.44;4898487;29;20048;-78
2022/05/27 01:54:50;;;;;;;4.25;2.00;;;;;;;19.53;97.80;100461.47;4898008;29;19970;-83
2022/05/27 01:57:25;;;;;;;4.72;2.13;;;;;;;19.53;98.25;100458.84;4899379;29;20084;-84
2022/05/27 02:00:04;;;;;;;6.35;2.00;;;;;;;19.53;98.43;100456.22;4902381;29;20095;-83
2022/05/27 02:02:38;;;;;;;3.95;2.33;;;;;;;19.55;98.52;100460.56;4917262;29;20487;-85
2022/05/27 02:05:11;;;;;;;2.55;1.85;;;;;;;19.56;98.08;100458.81;4916831;29;20098;-83
2022/05/27 02:07:46;;;;;;;4.05;2.45;;;;;;;19.56;98.19;100456.19;4917975;29;20419;-84
2022/05/27 02:10:20;;;;;;;4.70;2.08;;;;;;;19.55;99.25;100449.19;4919230;29;20124;-83
2022/05/27 02:12:52;;;;;;;4.35;2.60;;;;;;;19.51;100.00;100445.72;4916750;29;20052;-83
2022/05/27 02:15:28;;;;;;;5.95;2.15;;;;;;;19.50;99.22;100448.41;4916663;29;20048;-82
2022/05/27 02:18:05;;;;;;;3.05;1.70;;;;;;;19.46;100.00;100453.66;4916433;29;20499;-81
2022/05/27 02:20:38;;;;;;;5.22;2.08;;;;;;;19.43;100.00;100455.47;4916459;29;20514;-80
2022/05/27 02:23:11;;;;;;;5.05;2.72;;;;;;;19.43;98.12;100455.47;4897065;29;20149;-84
2022/05/27 02:25:43;;;;;;;3.10;1.98;;;;;;;19.42;97.48;100459.84;4897976;29;20496;-86
2022/05/27 02:28:18;;;;;;;4.82;2.10;;;;;;;19.36;96.79;100453.81;4894504;29;20044;-85
2022/05/27 02:30:50;;;;;;;2.88;1.90;;;;;;;19.39;98.17;100454.63;4901420;28;20055;-84
2022/05/27 02:36:14;;;;;;;7.85;2.33;;;;;;;19.37;100.00;100451.16;4897630;29;20059;-84
2022/05/27 02:38:42;;;;;;;;;;;;;;;19.38;100.00;100458.16;4902638;29;20056;-81
2022/05/27 02:41:17;;;;;;;3.22;1.85;;;;;;;19.39;100.00;100453.75;4901808;29;19924;-80
2022/05/27 02:44:01;;;;;;;2.95;2.03;;;;;;;19.41;99.59;100462.50;4898472;29;20117;-78
2022/05/27 02:46:40;;;;;;;3.45;1.60;;;;;;;19.41;98.43;100454.63;4897434;29;20057;-85
2022/05/27 02:49:18;;;;;;;3.40;1.88;;;;;;;19.39;98.67;100449.38;4897254;29;20060;-81
2022/05/27 02:51:55;;;;;;;3.03;1.80;;;;;;;19.40;99.43;100445.00;4895427;29;20044;-82
2022/05/27 02:54:32;;;;;;;2.80;1.67;;;;;;;19.39;99.14;100448.50;4896239;29;20060;-83
2022/05/27 02:57:05;;;;;;;2.63;1.80;;;;;;;19.35;98.58;100442.41;4896147;29;20053;-84
2022/05/27 02:59:36;;;;;;;3.28;1.90;;;;;;;19.30;98.11;100441.63;4898608;29;20459;-85
2022/05/27 03:02:12;;;;;;;3.50;1.85;;;;;;;19.30;97.37;100444.25;4916043;29;20052;-81
2022/05/27 03:04:45;;;;;;;3.47;2.17;;;;;;;19.25;98.82;100456.53;4916968;29;20056;-82
2022/05/27 03:07:27;;;;;;;3.20;1.90;;;;;;;19.19;98.61;100451.34;4915643;29;20323;-84
2022/05/27 03:10:01;;;;;;;5.80;2.10;;;;;;;19.15;98.95;100450.53;4917078;29;20060;-88
2022/05/27 03:12:40;;;;;;;3.22;1.58;;;;;;;19.11;99.58;100447.97;4918873;29;20088;-91
2022/05/27 03:15:30;;;;;;;3.13;1.98;;;;;;;19.07;99.50;100446.25;4916784;29;20083;-90
2022/05/27 03:18:13;;;;;;;4.10;1.88;;;;;;;19.01;99.53;100452.41;4916649;29;20136;-87
2022/05/27 03:20:51;;;;;;;4.50;2.00;;;;;;;18.94;100.00;100451.59;4915320;29;20146;-84
2022/05/27 03:23:46;;;;;;;4.05;1.80;;;;;;;18.89;99.92;100445.53;4877265;29;20061;-82
2022/05/27 03:26:22;;;;;;;7.90;1.65;;;;;;;18.77;100.00;100438.66;4885446;29;20459;-84
2022/05/27 03:29:01;;;;;;;3.05;1.50;;;;;;;18.77;100.00;100445.66;4904725;29;20104;-83
2022/05/27 03:31:35;;;;;;;5.07;1.52;;;;;;;18.71;100.00;100443.91;4898615;28;20115;-82
2022/05/27 03:34:10;;;;;;;4.03;2.17;;;;;;;18.66;100.00;100445.72;4895400;29;20056;-83
2022/05/27 03:36:47;;;;;;;1.92;1.63;;;;;;;18.58;100.00;100437.06;4896451;29;20088;-80
2022/05/27 03:39:23;;;;;;;3.67;1.88;;;;;;;18.52;100.00;100440.59;4895977;29;20103;-82
2022/05/27 03:41:55;;;;;;;7.13;2.20;;;;;;;18.49;100.00;100443.25;4895319;29;20048;-81
2022/05/27 03:44:27;;;;;;;3.55;2.10;;;;;;;18.43;100.00;100438.91;4895929;29;20605;-82
2022/05/27 03:46:57;;;;;;;3.85;2.00;;;;;;;18.37;100.00;100432.84;4895712;29;20049;-82
2022/05/27 03:49:25;;;;;;;3.38;2.33;;;;;;;18.30;100.00;100437.28;4895774;29;20282;-81
2022/05/27 03:52:00;;;;;;;3.10;2.08;;;;;;;18.26;100.00;100437.31;4895702;29;20481;-82
2022/05/27 03:54:28;;;;;;;4.03;2.33;;;;;;;18.23;100.00;100440.81;4895845;29;20136;-82
2022/05/27 03:56:57;;;;;;;4.03;2.70;;;;;;;18.19;100.00;100445.22;4899115;29;20056;-82
2022/05/27 03:59:26;;;;;;;6.18;1.90;;;;;;;18.17;100.00;100444.34;4896150;29;20064;-82
2022/05/27 04:01:56;;;;;;;4.40;2.45;;;;;;;18.13;100.00;100450.47;4913880;29;20151;-82
2022/05/27 04:04:28;;;;;;;6.93;2.67;;;;;;;18.08;100.00;100440.94;4914535;29;20056;-80
2022/05/27 04:06:59;;;;;;;3.67;2.40;;;;;;;18.05;100.00;100447.06;4914756;29;20463;-85
2022/05/27 04:09:28;;;;;;;4.30;2.67;;;;;;;18.01;100.00;100450.56;4914609;29;20463;-84
2022/05/27 04:11:58;;;;;;;5.07;2.53;;;;;;;18.01;100.00;100458.41;4914424;29;20107;-84
2022/05/27 04:14:27;;;;;;;3.30;2.50;;;;;;;17.99;100.00;100457.56;4914398;29;20056;-84
2022/05/27 04:17:27;;;;;;;4.47;2.40;;;;;;;17.98;100.00;100456.69;4914401;29;20486;-84
2022/05/27 04:19:45;;;;;;;4.57;2.85;;;;;;;17.96;100.00;100465.44;4914084;29;20141;-85
2022/05/27 04:22:16;;;;;;;4.35;3.13;;;;;;;17.95;100.00;100461.06;4901797;29;20140;-85
2022/05/27 04:24:45;;;;;;;4.95;2.70;;;;;;;17.94;100.00;100464.56;4895223;29;20096;-85
2022/05/27 04:27:16;;;;;;;5.45;2.88;;;;;;;17.89;100.00;100461.09;4906637;29;20048;-83
2022/05/27 04:29:46;;;;;;;3.70;2.00;;;;;;;17.85;100.00;100456.78;4896345;29;20494;-83
2022/05/27 04:32:14;;;;;;;5.78;2.45;;;;;;;17.83;100.00;100450.66;4896677;28;20104;-83
2022/05/27 04:34:43;;;;;;;6.13;2.90;;;;;;;17.79;100.00;100445.41;4895503;29;20056;-87
2022/05/27 04:37:12;;;;;;;9.73;3.08;;;;;;;17.78;100.00;100448.03;4895255;29;20112;-88
2022/05/27 04:39:43;;;;;;;7.03;3.15;;;;;;;17.74;100.00;100447.19;4894913;29;20091;-86
2022/05/27 04:42:12;;;;;;;4.38;2.58;;;;;;;17.71;100.00;100449.81;4894323;29;20101;-87
2022/05/27 04:44:40;;;;;;;4.03;2.53;;;;;;;17.67;100.00;100462.91;4895888;29;20538;-90
2022/05/27 04:47:11;;;;;;;4.68;2.42;;;;;;;17.62;100.00;100467.31;4896498;29;20575;-84
2022/05/27 04:49:53;;;;;;;3.72;2.22;;;;;;;17.60;100.00;100475.16;4896702;29;20052;-86
2022/05/27 04:52:24;;;;;;;3.33;2.60;;;;;;;17.58;100.00;100479.53;4896475;29;20052;-86
2022/05/27 04:54:55;;;;;;;4.05;2.33;;;;;;;17.56;100.00;100481.28;4895707;29;20291;-84
2022/05/27 04:57:25;;;;;;;4.25;2.55;;;;;;;17.54;100.00;100485.63;4895187;29;20127;-84
2022/05/27 04:59:53;;;;;;;4.53;2.20;;;;;;;17.54;100.00;100485.63;4899295;29;20100;-83
2022/05/27 05:02:23;;;;;;;3.50;2.60;;;;;;;17.52;100.00;100483.03;4913651;29;20048;-84
2022/05/27 05:04:52;;;;;;;5.72;2.60;;;;;;;17.50;100.00;100483.91;4913390;29;20059;-84
2022/05/27 05:07:22;;;;;;;5.18;2.25;;;;;;;17.47;100.00;100484.78;4913982;29;20048;-84
2022/05/27 05:09:53;;;;;;;6.03;2.75;;;;;;;17.43;100.00;100490.03;4914004;29;20529;-84
2022/05/27 05:12:22;;;;;;;6.88;3.13;;;;;;;17.37;100.00;100499.63;4913612;29;20561;-85
2022/05/27 05:14:51;;;;;;;4.10;2.53;;;;;;;17.28;100.00;100494.44;4913268;29;20287;-87
2022/05/27 05:17:20;;;;;;;5.03;2.67;;;;;;;17.22;100.00;100498.78;4914038;29;20094;-86
2022/05/27 05:19:53;;;;;;;5.20;3.22;;;;;;;17.20;100.00;100497.91;4914019;29;20092;-82
2022/05/27 05:22:21;;;;;;;4.63;2.95;;;;;;;17.20;100.00;100480.47;4900275;29;20060;-85
2022/05/27 05:24:53;;;;;;;3.58;2.47;;;;;;;17.22;100.00;100494.44;4894613;29;20542;-84
2022/05/27 05:27:23;;;;;;;4.57;2.40;;;;;;;17.20;100.00;100485.72;4907569;29;20052;-85
2022/05/27 05:29:53;;;;;;;7.38;3.63;;;;;;;17.20;100.00;100487.47;4894743;29;20052;-85
2022/05/27 05:32:22;;;;;;;6.05;2.40;;;;;;;17.20;100.00;100497.91;4896174;28;20056;-85
2022/05/27 05:34:51;;;;;;;6.78;3.00;;;;;;;17.20;100.00;100497.91;4894342;29;20060;-83
2022/05/27 05:37:19;;;;;;;4.18;2.58;;;;;;;17.17;100.00;100497.06;4895080;29;20084;-83
2022/05/27 05:39:48;;;;;;;6.00;3.13;;;;;;;17.18;100.00;100497.94;4894648;29;20052;-87
2022/05/27 05:42:16;;;;;;;9.93;3.17;;;;;;;17.17;100.00;100497.06;4893714;29;20065;-83
2022/05/27 05:44:46;;;;;;;5.22;3.10;;;;;;;17.13;100.00;100499.66;4897647;29;20135;-85
2022/05/27 05:47:15;;;;;;;6.30;3.10;;;;;;;17.06;100.00;100500.56;4894752;29;20132;-86
2022/05/27 05:49:44;;;;;;;6.00;2.95;;;;;;;17.01;100.00;100490.09;4897125;29;20053;-84
2022/05/27 05:52:12;;;;;;;4.53;2.70;;;;;;;17.02;100.00;100496.19;4897865;29;20108;-83
2022/05/27 05:54:41;;;;;;;6.18;3.03;;;;;;;17.02;100.00;100498.81;4897718;29;20052;-84
2022/05/27 05:57:10;;;;;;;6.25;3.13;;;;;;;17.03;100.00;100497.97;4898361;29;20053;-86
2022/05/27 05:59:39;;;;;;;5.05;3.25;;;;;;;17.00;100.00;100497.97;4899942;29;20565;-83
2022/05/27 06:02:09;;;;;;;5.88;2.92;;;;;;;17.01;100.00;100497.09;4916133;29;20048;-86
2022/05/27 06:04:38;;;;;;;5.68;3.10;;;;;;;16.92;100.00;100488.38;4923566;29;20052;-88
2022/05/27 06:07:07;;;;;;;4.65;3.22;;;;;;;17.01;100.00;100502.31;4920191;29;20082;-87
2022/05/27 06:09:35;;;;;;;6.70;3.58;;;;;;;17.02;100.00;100498.81;4922311;29;20120;-83
2022/05/27 06:12:04;;;;;;;6.55;2.75;;;;;;;17.05;100.00;100507.53;4915730;29;20040;-84
2022/05/27 06:14:33;;;;;;;4.88;3.47;;;;;;;17.06;100.00;100508.41;4915951;29;20091;-82
2022/05/27 06:17:01;;;;;;;4.97;2.78;;;;;;;16.96;100.00;100507.53;4916220;29;20127;-81
2022/05/27 06:19:32;;;;;;;5.97;3.55;;;;;;;17.03;100.00;100524.97;4916699;29;20052;-81
2022/05/27 06:22:00;;;;;;;6.97;3.60;;;;;;;17.04;100.00;100526.72;4906097;29;20427;-82
2022/05/27 06:24:29;;;;;;;5.35;3.17;;;;;;;17.05;100.00;100517.13;4897227;29;20064;-81
2022/05/27 06:26:57;;;;;;;5.40;3.17;;;;;;;16.99;100.00;100519.75;4907204;29;20533;-82
2022/05/27 06:34:57;;;;;;;6.10;3.13;;;;;;;16.87;100.00;100523.22;4897137;29;20063;-82
2022/05/27 06:37:26;;;;;;;5.32;2.60;;;;;;;16.82;100.00;100533.69;4897051;29;20491;-81
2022/05/27 06:39:55;;;;;;;5.43;3.08;;;;;;;16.83;100.00;100543.25;4899922;29;20535;-81
2022/05/27 06:42:23;;;;;;;4.45;3.05;;;;;;;16.85;100.00;100544.13;4896573;29;20575;-80
2022/05/27 06:44:52;;;;;;;4.85;2.88;;;;;;;16.89;100.00;100543.25;4897072;29;20097;-80
2022/05/27 06:47:21;;;;;;;5.93;3.17;;;;;;;16.90;100.00;100539.75;4897219;29;20271;-81
2022/05/27 06:49:49;;;;;;;6.07;2.88;;;;;;;16.88;100.00;100538.91;4897072;29;20084;-83
2022/05/27 06:52:19;;;;;;;2.95;1.58;;;;;;;16.83;100.00;100547.63;4896525;29;20060;-81
2022/05/27 06:54:48;;;;;;;2.78;1.50;;;;;;;16.81;100.00;100537.16;4896841;29;20055;-81
2022/05/27 06:57:16;;;;;;;2.47;1.73;;;;;;;16.82;100.00;100551.97;4897044;29;20056;-79
2022/05/27 06:59:45;;;;;;;3.95;1.55;;;;;;;16.80;100.00;100548.50;4899099;29;20443;-81
2022/05/27 07:02:13;;;;;;;3.42;1.63;;;;;;;16.76;100.00;100541.47;4915114;29;20044;-80
2022/05/27 07:04:49;;;;;;;2.13;1.33;;;;;;;16.70;100.00;100544.09;4915930;29;20060;-80
2022/05/27 07:07:19;;;;;;;2.25;1.38;;;;;;;16.71;100.00;100553.66;4915343;29;20090;-80
2022/05/27 07:09:47;;;;;;;3.25;1.52;;;;;;;16.69;100.00;100558.03;4915219;29;20131;-80
2022/05/27 07:12:16;;;;;;;3.10;1.40;;;;;;;16.64;100.00;100555.41;4915131;29;20490;-79
2022/05/27 07:14:45;;;;;;;4.07;1.52;;;;;;;16.49;90.22;100548.44;4914823;29;20058;-79
2022/05/27 07:17:13;;;;;;;4.82;1.17;;;;;;;16.51;80.30;100561.47;4915713;29;20143;-79
2022/05/27 07:19:43;;;;;;;2.13;1.05;;;;;;;16.46;79.53;100564.06;4914776;29;20566;-79
2022/05/27 07:22:12;;;;;;;3.22;1.13;;;;;;;16.39;78.62;100562.31;4902907;29;20148;-79
2022/05/27 07:24:43;;;;;;;1.70;1.13;;;;;;;16.38;80.15;100563.19;4896062;29;20060;-79
2022/05/27 07:27:11;;;;;;;2.42;1.25;;;;;;;16.35;82.85;100560.56;4907634;29;20329;-78
2022/05/27 07:29:40;;;;;;;1.95;1.05;;;;;;;16.27;78.30;100557.06;4897772;29;20084;-79
2022/05/27 07:32:08;;;;;;;1.73;1.02;;;;;;;16.22;77.26;100553.59;4898637;28;20068;-80
2022/05/27 07:34:38;;;;;;;1.60;1.10;;;;;;;16.18;76.80;100557.91;4899155;29;20092;-79
2022/05/27 07:37:07;;;;;;;1.67;1.27;;;;;;;16.18;81.79;100570.09;4896526;29;20144;-78
2022/05/27 07:39:36;;;;;;;2.08;1.20;;;;;;;16.12;81.63;100577.00;4896325;29;20049;-80
2022/05/27 07:42:07;;;;;;;7.80;1.48;;;;;;;16.09;82.40;100573.53;4895683;29;20076;-79
2022/05/27 07:44:36;;;;;;;1.80;1.00;;;;;;;16.00;81.08;100584.81;4896297;29;20139;-80
2022/05/27 07:47:06;;;;;;;2.33;0.90;;;;;;;15.95;78.12;100565.66;4895547;29;20159;-79
2022/05/27 07:49:34;;;;;;;3.67;1.20;;;;;;;15.91;90.60;100563.88;4896400;29;20087;-78
2022/05/27 07:52:04;;;;;;;2.80;0.85;;;;;;;15.96;96.84;100582.16;4895697;29;20049;-79
2022/05/27 07:54:32;;;;;;;1.40;1.00;;;;;;;15.90;98.06;100577.81;4895936;29;20119;-78
2022/05/27 07:57:01;;;;;;;3.65;1.35;;;;;;;15.86;98.82;100589.09;4895945;29;20053;-78
2022/05/27 07:59:32;;;;;;;1.30;0.88;;;;;;;15.81;100.00;100596.88;4896497;29;20052;-79
2022/05/27 08:02:00;;;;;;;3.33;1.00;;;;;;;15.73;91.18;100588.13;4914342;29;20566;-79
2022/05/27 08:04:29;;;;;;;2.17;0.95;;;;;;;15.64;97.17;100573.25;4914362;29;20052;-78
2022/05/27 08:07:04;;;;;;;2.05;1.23;;;;;;;15.62;97.92;100574.13;4914674;29;20104;-79
2022/05/27 08:09:32;;;;;;;3.70;1.35;;;;;;;15.54;97.92;100568.88;4914723;29;20143;-78
2022/05/27 08:12:01;;;;;;;3.00;1.27;;;;;;;15.46;97.33;100571.44;4913240;29;20048;-79
2022/05/27 08:14:31;;;;;;;3.55;1.10;;;;;;;15.39;97.24;100568.75;4914201;29;20048;-78
2022/05/27 08:16:59;;;;;;;4.57;1.10;;;;;;;15.36;100.00;100576.56;4914556;29;20559;-78
2022/05/27 08:19:28;;;;;;;3.25;1.23;;;;;;;15.28;99.52;100580.00;4914417;29;20088;-78
2022/05/27 08:21:57;;;;;;;2.95;1.05;;;;;;;15.19;96.59;100577.31;4904472;29;20048;-78
2022/05/27 08:24:25;;;;;;;2.88;1.00;;;;;;;15.11;96.07;100591.16;4894833;29;20139;-78
2022/05/27 08:26:54;;;;;;;1.65;1.13;;;;;;;15.03;95.31;100606.72;4904940;29;20044;-78
2022/05/27 08:29:22;;;;;;;3.17;1.10;;;;;;;14.95;93.76;100609.25;4902289;29;20555;-78
2022/05/27 08:31:52;;;;;;;1.73;1.10;;;;;;;14.93;94.76;100610.09;4896818;28;20608;-77
2022/05/27 08:39:52;;;;;;;2.30;1.75;;;;;;;14.91;99.96;100620.50;4895035;29;20060;-78
2022/05/27 08:42:29;;;;;;;4.75;1.30;;;;;;;14.90;100.00;100621.38;4894810;29;20080;-78
2022/05/27 08:45:04;;;;;;;2.97;1.48;;;;;;;14.84;99.10;100619.59;4895060;29;20076;-77
2022/05/27 08:47:40;;;;;;;3.22;1.75;;;;;;;14.78;95.26;100622.13;4895392;29;20052;-78
2022/05/27 08:50:14;;;;;;;5.07;1.98;;;;;;;14.66;84.44;100612.47;4894921;29;20080;-78
2022/05/27 08:52:47;;;;;;;3.30;1.33;;;;;;;14.67;91.64;100613.31;4894815;29;20574;-77
2022/05/27 09:01:20;;;;;;;2.60;1.42;;;;;;;14.56;93.82;100622.75;4909530;29;20055;-77
2022/05/27 09:03:54;;;;;;;2.58;1.30;;;;;;;14.53;93.65;100620.94;4913713;29;20139;-77
2022/05/27 09:06:32;;;;;;;2.58;1.17;;;;;;;14.53;97.33;100635.72;4913667;29;20108;-77
2022/05/27 09:09:02;;;;;;;2.45;1.42;;;;;;;14.51;96.67;100634.81;4913613;29;20509;-77
2022/05/27 09:11:38;;;;;;;2.60;1.20;;;;;;;14.49;97.52;100644.34;4913223;29;20056;-77
2022/05/27 09:14:14;;;;;;;2.15;0.98;;;;;;;14.49;98.02;100653.00;4913645;29;20052;-77
2022/05/27 09:16:53;;;;;;;4.20;1.52;;;;;;;14.49;100.00;100649.53;4914118;29;20418;-78
2022/05/27 09:19:32;;;;;;;1.70;1.13;;;;;;;14.51;100.00;100653.03;4913539;29;20057;-77
2022/05/27 09:22:12;;;;;;;1.83;1.40;;;;;;;14.53;100.00;100654.78;4903141;29;20088;-77
2022/05/27 09:24:56;;;;;;;1.52;0.95;;;;;;;14.54;100.00;100659.16;4900087;29;20049;-77
2022/05/27 09:27:33;;;;;;;2.00;1.00;;;;;;;14.56;100.00;100667.88;4912310;29;20478;-78
2022/05/27 09:30:04;;;;;;;2.47;1.08;;;;;;;14.56;100.00;100657.47;4879706;29;20127;-77
2022/05/27 09:32:38;;;;;;;3.33;1.13;;;;;;;14.55;100.00;100660.94;4881400;28;20465;-78
2022/05/27 09:35:12;;;;;;;1.10;0.93;;;;;;;14.58;100.00;100654.88;4903030;29;20135;-77
2022/05/27 09:37:46;;;;;;;2.55;1.15;;;;;;;14.59;100.00;100661.81;4899260;29;20120;-77
2022/05/27 09:40:18;;;;;;;2.92;1.10;;;;;;;14.50;100.00;100654.78;4915712;29;20143;-78
2022/05/27 09:42:52;;;;;;;2.40;1.10;;;;;;;14.57;100.00;100681.78;4907621;29;20053;-78
2022/05/27 09:45:20;;;;;;;1.95;0.80;;;;;;;14.55;96.96;100686.09;4896825;29;20143;-78
2022/05/27 09:47:49;;;;;;;3.45;1.33;;;;;;;14.56;100.00;100687.84;4897563;29;20048;-79
2022/05/27 09:50:27;;;;;;;2.25;1.10;;;;;;;14.56;100.00;100688.69;4897406;29;20100;-79
2022/05/27 09:52:59;;;;;;;2.45;1.15;;;;;;;14.57;100.00;100687.88;4915378;29;20107;-80
2022/05/27 09:55:33;;;;;;;1.83;0.90;;;;;;;14.58;100.00;100691.34;4915885;29;20593;-78
2022/05/27 09:58:03;;;;;;;0.80;0.63;;;;;;;14.58;100.00;100686.13;4915786;29;20402;-79
2022/05/27 10:00:37;;;;;;;2.90;1.00;;;;;;;14.57;100.00;100697.41;4915334;29;20601;-78
2022/05/27 10:03:32;;;;;;;1.83;1.00;;;;;;;14.57;100.00;100697.41;4915564;29;20093;-80
2022/05/27 10:06:04;;;;;;;1.80;1.00;;;;;;;14.53;100.00;100701.66;4914960;29;20511;-78
2022/05/27 10:08:36;;;;;;;;;;;;;;;14.52;100.00;100702.50;4906090;29;20048;-78
2022/05/27 10:11:26;;;;;;;2.67;1.70;;;;;;;14.53;100.00;100703.41;4896536;29;19975;-77
2022/05/27 10:14:20;;;;;;;2.45;1.58;;;;;;;14.44;100.00;100699.81;4891865;29;20087;-78
2022/05/27 10:17:08;;;;;;;3.10;1.00;;;;;;;14.31;100.00;100708.31;4896525;29;20084;-79
2022/05/27 10:19:37;;;;;;;1.40;0.90;;;;;;;14.29;100.00;100706.53;4897446;29;20478;-78
2022/05/27 10:22:10;;;;;;;2.92;1.60;;;;;;;14.29;100.00;100704.81;4895454;29;20063;-79
2022/05/27 10:24:38;;;;;;;;;;;;;;;14.27;100.00;100703.94;4907693;29;20102;-79
2022/05/27 10:27:12;;;;;;;1.30;0.82;;;;;;;14.27;100.00;100684.81;4915185;29;20419;-79
2022/05/27 10:29:53;;;;;;;2.45;1.00;;;;;;;14.29;100.00;100684.00;4915327;29;20087;-79
2022/05/27 10:32:39;;;;;;;3.22;1.15;;;;;;;14.31;100.00;100695.28;4582152;28;8838927;-78
2022/05/27 10:35:10;;;;;;;2.97;0.93;;;;;;;14.31;100.00;100708.31;4878819;29;20129;-78
2022/05/27 10:38:00;;;;;;;7.47;1.30;;;;;;;14.33;100.00;100710.94;4879011;29;20463;-78
2022/05/27 10:40:36;;;;;;;2.53;1.10;;;;;;;14.29;100.00;100699.59;4910076;29;20048;-79
2022/05/27 10:43:19;;;;;;;1.60;0.98;;;;;;;14.25;100.00;100698.72;4902946;29;20522;-79
2022/05/27 10:45:51;;;;;;;2.20;0.95;;;;;;;14.22;100.00;100695.19;4891727;29;20101;-80
2022/05/27 10:48:47;;;;;;;2.03;1.05;;;;;;;14.19;100.00;100697.75;4907090;29;20052;-80
2022/05/27 10:51:30;;;;;;;2.08;0.88;;;;;;;14.23;100.00;100691.72;4905955;29;20623;-80
2022/05/27 10:54:16;;;;;;;2.83;1.17;;;;;;;14.27;100.00;100696.13;4915792;29;20044;-79
2022/05/27 11:02:46;;;;;;;1.88;1.15;;;;;;;14.19;100.00;100716.81;4916045;29;20055;-79
2022/05/27 11:05:34;;;;;;;1.92;1.13;;;;;;;14.19;100.00;100726.38;4897477;29;20139;-79
2022/05/27 11:08:18;;;;;;;4.38;1.50;;;;;;;14.18;100.00;100735.03;4880039;29;20669;-80
2022/05/27 11:10:55;;;;;;;1.77;0.88;;;;;;;14.17;100.00;100739.34;4896960;29;20052;-79
2022/05/27 11:16:43;;;;;;;1.00;0.70;;;;;;;14.18;100.00;100738.50;4899270;29;20064;-79
2022/05/27 11:19:40;;;;;;;2.08;0.75;;;;;;;14.22;100.00;100753.31;4897161;29;20048;-80
2022/05/27 11:22:27;;;;;;;1.00;0.35;;;;;;;14.22;100.00;100755.03;4902871;29;20056;-81
2022/05/27 11:25:31;;;;;;;1.38;0.40;;;;;;;14.21;100.00;100755.91;4896884;29;20055;-80
2022/05/27 11:28:16;;;;;;;0.82;0.43;;;;;;;14.17;100.00;100761.91;4895185;29;20049;-79
2022/05/27 11:30:59;;;;;;;0.43;0.43;;;;;;;14.17;100.00;100761.91;4913163;29;20055;-80
2022/05/27 11:33:44;;;;;;;3.13;0.50;;;;;;;14.15;100.00;100761.00;4927997;28;20056;-82
2022/05/27 11:36:26;;;;;;;0.60;0.43;;;;;;;14.19;100.00;100762.81;4916460;29;20048;-79
2022/05/27 11:39:17;;;;;;;0.57;0.30;;;;;;;14.19;100.00;100770.59;4916292;29;20052;-80
2022/05/27 11:41:54;;;;;;;0.47;0.40;;;;;;;14.16;100.00;100765.38;4909870;29;20108;-81
2022/05/27 11:44:35;;;;;;;0.70;0.38;;;;;;;14.13;100.00;100765.31;4896543;29;20123;-80
2022/05/27 11:47:26;;;;;;;1.58;0.25;;;;;;;14.13;100.00;100768.81;4895984;29;20091;-79
2022/05/27 11:50:11;;;;;;;1.08;0.30;;;;;;;14.12;100.00;100768.78;4896888;29;20578;-82
2022/05/27 11:52:57;;;;;;;0.15;0.13;;;;;;;14.11;100.00;100759.19;4895089;29;20060;-79
2022/05/27 11:55:40;;;;;;;0.20;0.10;;;;;;;14.10;100.00;100760.94;4905529;29;20139;-81
2022/05/27 11:58:17;;;;;;;0.20;0.10;;;;;;;14.09;100.00;100773.91;4915874;29;20422;-80
2022/05/27 12:00:53;;;;;;;0.35;0.20;;;;;;;14.07;100.00;100765.22;4914989;29;20056;-81
2022/05/27 12:03:30;;;;;;;4.75;0.20;;;;;;;14.03;100.00;100775.56;4914484;29;20080;-81
2022/05/27 12:06:05;;;;;;;0.82;0.20;;;;;;;14.01;100.00;100777.28;4914991;29;20147;-81
2022/05/27 12:08:38;;;;;;;0.43;0.17;;;;;;;13.98;100.00;100778.97;4915079;29;20052;-82
2022/05/27 12:11:13;;;;;;;0.10;0.10;;;;;;;13.94;100.00;100775.41;4917317;29;20048;-83
2022/05/27 12:13:47;;;;;;;0.10;0.00;;;;;;;13.94;100.00;100772.81;4914793;29;20036;-81
2022/05/27 12:16:19;;;;;;;2.10;0.13;;;;;;;13.93;100.00;100778.88;4914951;29;20044;-80
2022/05/27 12:18:49;;;;;;;;;;;;;;;13.88;100.00;100780.56;4915868;29;20076;-81
2022/05/27 12:21:21;;;;;;;0.08;0.00;;;;;;;13.84;100.00;100778.75;4892894;29;19955;-82